Search for airport 
image banner adimage banner adimage banner ad
image banner ad

KABE - Lehigh Valley Intl

Located in Allentown, United States

ICAO - ABE, IATA - ABE

Data provided by Airmate  

General information

Coordinates: N40°39'9" W75°26'25"
Elevation is 394 feet MSL.
Magnetic variation is -12° East
View others Airports in Pennsylvania

Operational data

Special qualification required
Current time UTC:
Current local time:
Weather
METAR: KABE 131951Z 32003KT 10SM SCT028 OVC033 23/17 A2990 RMK AO2 SLP122 T02280172 $
TAF: KABE 131728Z 1318/1418 20005KT P6SM BKN040 FM140100 18004KT P6SM -SHRA OVC025 FM140700 15004KT 4SM -SHRA BR OVC015 FM141600 20004KT 6SM BR BKN010
View NOTAMs / SUP AIP / TFR affecting this airport [VIEW]
Communications frequencies: [VIEW]

Runways:

RWY identifierQFULength (ft)Width (ft)SurfaceLDA (ft)
0651°7599150ASPH7599
24231°7599150ASPH7089
13123°5800150ASPH5800
31303°5800150ASPH5800

Airport contact information

Address: Allentown United States

Other aviation service providers

Flight schools

Ace Pilot Training

Ace Pilot Training
office@acepilot.com+1(610)264-1105

Satellite view of KABE